地図

経路データ

SID SEASON NUMBER BASIN SUBBASIN NAME ISO_TIME NATURE LAT LON WMO_WIND WMO_PRES WMO_AGENCY TRACK_TYPE DIST2LAND LANDFALL IFLAG USA_AGENCY USA_ATCF_ID USA_LAT USA_LON USA_RECORD USA_STATUS USA_WIND USA_PRES USA_SSHS USA_R34_NE USA_R34_SE USA_R34_SW USA_R34_NW USA_R50_NE USA_R50_SE USA_R50_SW USA_R50_NW USA_R64_NE USA_R64_SE USA_R64_SW USA_R64_NW USA_POCI USA_ROCI USA_RMW USA_EYE TOKYO_LAT TOKYO_LON TOKYO_GRADE TOKYO_WIND TOKYO_PRES TOKYO_R50_DIR TOKYO_R50_LONG TOKYO_R50_SHORT TOKYO_R30_DIR TOKYO_R30_LONG TOKYO_R30_SHORT TOKYO_LAND CMA_LAT CMA_LON CMA_CAT CMA_WIND CMA_PRES HKO_LAT HKO_LON HKO_CAT HKO_WIND HKO_PRES NEWDELHI_LAT NEWDELHI_LON NEWDELHI_GRADE NEWDELHI_WIND NEWDELHI_PRES NEWDELHI_CI NEWDELHI_DP NEWDELHI_POCI REUNION_LAT REUNION_LON REUNION_TYPE REUNION_WIND REUNION_PRES REUNION_TNUM REUNION_CI REUNION_RMW REUNION_R34_NE REUNION_R34_SE REUNION_R34_SW REUNION_R34_NW REUNION_R50_NE REUNION_R50_SE REUNION_R50_SW REUNION_R50_NW REUNION_R64_NE REUNION_R64_SE REUNION_R64_SW REUNION_R64_NW BOM_LAT BOM_LON BOM_TYPE BOM_WIND BOM_PRES BOM_TNUM BOM_CI BOM_RMW BOM_R34_NE BOM_R34_SE BOM_R34_SW BOM_R34_NW BOM_R50_NE BOM_R50_SE BOM_R50_SW BOM_R50_NW BOM_R64_NE BOM_R64_SE BOM_R64_SW BOM_R64_NW BOM_ROCI BOM_POCI BOM_EYE BOM_POS_METHOD BOM_PRES_METHOD NADI_LAT NADI_LON NADI_CAT NADI_WIND NADI_PRES WELLINGTON_LAT WELLINGTON_LON WELLINGTON_WIND WELLINGTON_PRES DS824_LAT DS824_LON DS824_STAGE DS824_WIND DS824_PRES TD9636_LAT TD9636_LON TD9636_STAGE TD9636_WIND TD9636_PRES TD9635_LAT TD9635_LON TD9635_WIND TD9635_PRES TD9635_ROCI NEUMANN_LAT NEUMANN_LON NEUMANN_CLASS NEUMANN_WIND NEUMANN_PRES MLC_LAT MLC_LON MLC_CLASS MLC_WIND MLC_PRES USA_GUST BOM_GUST BOM_GUST_PER REUNION_GUST REUNION_GUST_PER USA_SEAHGT USA_SEARAD_NE USA_SEARAD_SE USA_SEARAD_SW USA_SEARAD_NW STORM_SPEED STORM_DIR
1894011S13057 1894 2 SI MM NOT_NAMED 1894-01-11 06:00:00 NR -13.0000 56.6000 reunion main 702 688 _____O________ -1 -13.0000 56.6000 99 9.90000 4 213
1894011S13057 1894 2 SI MM NOT_NAMED 1894-01-11 09:00:00 NR -13.1552 56.4955 main 684 670 _____P________ -1 -13.1552 56.4955 99 4 213
1894011S13057 1894 2 SI MM NOT_NAMED 1894-01-11 12:00:00 NR -13.3111 56.3926 main 670 653 _____P________ -1 -13.3111 56.3926 99 4 212
1894011S13057 1894 2 SI MM NOT_NAMED 1894-01-11 15:00:00 NR -13.4684 56.2928 main 653 639 _____P________ -1 -13.4684 56.2928 99 4 211
1894011S13057 1894 2 SI MM NOT_NAMED 1894-01-11 18:00:00 NR -13.6278 56.1979 main 639 623 _____P________ -1 -13.6278 56.1979 99 4 209
1894011S13057 1894 2 SI MM NOT_NAMED 1894-01-11 21:00:00 NR -13.7899 56.1095 main 623 609 _____P________ -1 -13.7899 56.1095 99 4 207
1894011S13057 1894 2 SI MM NOT_NAMED 1894-01-12 00:00:00 NR -13.9555 56.0293 main 607 604 _____P________ -1 -13.9555 56.0293 99 4 204
1894011S13057 1894 2 SI MM NOT_NAMED 1894-01-12 03:00:00 NR -14.1253 55.9589 main 604 589 _____P________ -1 -14.1253 55.9589 99 4 200
1894011S13057 1894 2 SI MM NOT_NAMED 1894-01-12 06:00:00 NR -14.3000 55.9000 reunion main 589 585 _____O________ -1 -14.3000 55.9000 99 9.90000 4 196
1894011S13057 1894 2 SI MM NOT_NAMED 1894-01-12 09:00:00 NR -14.4800 55.8540 main 585 572 _____P________ -1 -14.4800 55.8540 99 4 192
1894011S13057 1894 2 SI MM NOT_NAMED 1894-01-12 12:00:00 NR -14.6646 55.8213 main 572 571 _____P________ -1 -14.6646 55.8213 99 4 189
1894011S13057 1894 2 SI MM NOT_NAMED 1894-01-12 15:00:00 NR -14.8524 55.8016 main 570 569 _____P________ -1 -14.8524 55.8016 99 4 0
1894011S13057 1894 2 SI MM NOT_NAMED 1894-01-12 18:00:00 NR -15.0423 55.7951 main 569 568 _____P________ -1 -15.0423 55.7951 99 4 177
1894011S13057 1894 2 SI MM NOT_NAMED 1894-01-12 21:00:00 NR -15.2332 55.8017 main 568 555 _____P________ -1 -15.2332 55.8017 99 4 0
1894011S13057 1894 2 SI MM NOT_NAMED 1894-01-13 00:00:00 NR -15.4239 55.8214 main 555 531 _____P________ -1 -15.4239 55.8214 99 4 172
1894011S13057 1894 2 SI MM NOT_NAMED 1894-01-13 03:00:00 NR -15.6132 55.8542 main 531 510 _____P________ -1 -15.6132 55.8542 99 4 169
1894011S13057 1894 2 SI MM NOT_NAMED 1894-01-13 06:00:00 NR -15.8000 55.9000 reunion main 510 488 _____O________ -1 -15.8000 55.9000 99 9.90000 4 166
1894011S13057 1894 2 SI MM NOT_NAMED 1894-01-13 09:00:00 NR -15.9758 55.9492 main 488 474 _____P________ -1 -15.9758 55.9492 99 4 163
1894011S13057 1894 2 SI MM NOT_NAMED 1894-01-13 12:00:00 NR -16.1491 56.0125 main 474 450 _____P________ -1 -16.1491 56.0125 99 4 159
1894011S13057 1894 2 SI MM NOT_NAMED 1894-01-13 15:00:00 NR -16.3209 56.0883 main 450 425 _____P________ -1 -16.3209 56.0883 99 4 155
1894011S13057 1894 2 SI MM NOT_NAMED 1894-01-13 18:00:00 NR -16.4925 56.1751 main 425 400 _____P________ -1 -16.4925 56.1751 99 4 153
1894011S13057 1894 2 SI MM NOT_NAMED 1894-01-13 21:00:00 NR -16.6650 56.2713 main 400 387 _____P________ -1 -16.6650 56.2713 99 4 151
1894011S13057 1894 2 SI MM NOT_NAMED 1894-01-14 00:00:00 NR -16.8397 56.3752 main 387 362 _____P________ -1 -16.8397 56.3752 99 4 150
1894011S13057 1894 2 SI MM NOT_NAMED 1894-01-14 03:00:00 NR -17.0176 56.4853 main 362 338 _____P________ -1 -17.0176 56.4853 99 4 149
1894011S13057 1894 2 SI MM NOT_NAMED 1894-01-14 06:00:00 NR -17.2000 56.6000 reunion main 338 313 _____O________ -1 -17.2000 56.6000 99 9.90000 4 151
1894011S13057 1894 2 SI MM NOT_NAMED 1894-01-14 09:00:00 NR -17.3849 56.6999 main 313 289 _____P________ -1 -17.3849 56.6999 99 4 153
1894011S13057 1894 2 SI MM NOT_NAMED 1894-01-14 12:00:00 NR -17.5732 56.8047 main 289 264 _____P________ -1 -17.5732 56.8047 99 4 151
1894011S13057 1894 2 SI MM NOT_NAMED 1894-01-14 15:00:00 NR -17.7655 56.9156 main 264 240 _____P________ -1 -17.7655 56.9156 99 4 151
1894011S13057 1894 2 SI MM NOT_NAMED 1894-01-14 18:00:00 NR -17.9621 57.0336 main 240 214 _____P________ -1 -17.9621 57.0336 99 5 150
1894011S13057 1894 2 SI MM NOT_NAMED 1894-01-14 21:00:00 NR -18.1635 57.1599 main 214 191 _____P________ -1 -18.1635 57.1599 99 5 149
1894011S13057 1894 2 SI MM NOT_NAMED 1894-01-15 00:00:00 NR -18.3700 57.2956 main 191 168 _____P________ -1 -18.3700 57.2956 99 5 147
1894011S13057 1894 2 SI MM NOT_NAMED 1894-01-15 03:00:00 NR -18.5820 57.4419 main 168 145 _____P________ -1 -18.5820 57.4419 99 5 146
1894011S13057 1894 2 SI MM NOT_NAMED 1894-01-15 06:00:00 NR -18.8000 57.6000 reunion main 145 123 _____O________ -1 -18.8000 57.6000 99 9.90000 5 145
1894011S13057 1894 2 SI MM NOT_NAMED 1894-01-15 09:00:00 NR -19.0120 57.7612 main 123 102 _____P________ -1 -19.0120 57.7612 99 5 144
1894011S13057 1894 2 SI MM NOT_NAMED 1894-01-15 12:00:00 NR -19.2289 57.9336 main 102 84 _____P________ -1 -19.2289 57.9336 99 6 143
1894011S13057 1894 2 SI MM NOT_NAMED 1894-01-15 15:00:00 NR -19.4518 58.1172 main 79 76 _____P________ -1 -19.4518 58.1172 99 6 142
1894011S13057 1894 2 SI MM NOT_NAMED 1894-01-15 18:00:00 NR -19.6821 58.3119 main 77 77 _____P________ -1 -19.6821 58.3119 99 6 141
1894011S13057 1894 2 SI MM NOT_NAMED 1894-01-15 21:00:00 NR -19.9208 58.5176 main 85 85 _____P________ -1 -19.9208 58.5176 99 6 141
1894011S13057 1894 2 SI MM NOT_NAMED 1894-01-16 00:00:00 NR -20.1693 58.7342 main 94 94 _____P________ -1 -20.1693 58.7342 99 7 141
1894011S13057 1894 2 SI MM NOT_NAMED 1894-01-16 03:00:00 NR -20.4286 58.9617 main 125 125 _____P________ -1 -20.4286 58.9617 99 7 141
1894011S13057 1894 2 SI MM NOT_NAMED 1894-01-16 06:00:00 NR -20.7000 59.2000 reunion main 152 152 _____O________ -1 -20.7000 59.2000 99 9.90000 7 141
1894011S13057 1894 2 SI MM NOT_NAMED 1894-01-16 09:00:00 NR -20.9866 59.4470 main 183 183 _____P________ -1 -20.9866 59.4470 99 8 141
1894011S13057 1894 2 SI MM NOT_NAMED 1894-01-16 12:00:00 NR -21.2861 59.7067 main 226 226 _____P________ -1 -21.2861 59.7067 99 8 141
1894011S13057 1894 2 SI MM NOT_NAMED 1894-01-16 15:00:00 NR -21.5957 59.9768 main 268 268 _____P________ -1 -21.5957 59.9768 99 8 141
1894011S13057 1894 2 SI MM NOT_NAMED 1894-01-16 18:00:00 NR -21.9127 60.2550 main 311 311 _____P________ -1 -21.9127 60.2550 99 8 141
1894011S13057 1894 2 SI MM NOT_NAMED 1894-01-16 21:00:00 NR -22.2343 60.5388 main 346 346 _____P________ -1 -22.2343 60.5388 99 8 141
1894011S13057 1894 2 SI MM NOT_NAMED 1894-01-17 00:00:00 NR -22.5579 60.8259 main 397 397 _____P________ -1 -22.5579 60.8259 99 8 141
1894011S13057 1894 2 SI MM NOT_NAMED 1894-01-17 03:00:00 NR -22.8807 61.1138 main 441 441 _____P________ -1 -22.8807 61.1138 99 8 141
1894011S13057 1894 2 SI MM NOT_NAMED 1894-01-17 06:00:00 NR -23.2000 61.4000 reunion main 486 486 _____O________ -1 -23.2000 61.4000 99 9.90000 9 141
1894011S13057 1894 2 SI MM NOT_NAMED 1894-01-17 09:00:00 NR -23.5393 61.7046 main 531 531 _____P________ -1 -23.5393 61.7046 99 9 140
1894011S13057 1894 2 SI MM NOT_NAMED 1894-01-17 12:00:00 NR -23.8808 62.0129 main 583 583 _____P________ -1 -23.8808 62.0129 99 9 140
1894011S13057 1894 2 SI MM NOT_NAMED 1894-01-17 15:00:00 NR -24.2178 62.3189 main 628 628 _____P________ -1 -24.2178 62.3189 99 9 140
1894011S13057 1894 2 SI MM NOT_NAMED 1894-01-17 18:00:00 NR -24.5434 62.6166 main 673 673 _____P________ -1 -24.5434 62.6166 99 8 140
1894011S13057 1894 2 SI MM NOT_NAMED 1894-01-17 21:00:00 NR -24.8511 62.9000 main 725 725 _____P________ -1 -24.8511 62.9000 99 8 140
1894011S13057 1894 2 SI MM NOT_NAMED 1894-01-18 00:00:00 NR -25.1342 63.1626 main 762 762 _____P________ -1 -25.1342 63.1626 99 7 140
1894011S13057 1894 2 SI MM NOT_NAMED 1894-01-18 03:00:00 NR -25.3860 63.3981 main 799 799 _____P________ -1 -25.3860 63.3981 99 6 140
1894011S13057 1894 2 SI MM NOT_NAMED 1894-01-18 06:00:00 NR -25.6000 63.6000 reunion main 829 829 _____O________ -1 -25.6000 63.6000 99 9.90000 5 140
1894011S13057 1894 2 SI MM NOT_NAMED 1894-01-18 09:00:00 NR -25.7716 63.7637 main 859 859 _____P________ -1 -25.7716 63.7637 99 4 139
1894011S13057 1894 2 SI MM NOT_NAMED 1894-01-18 12:00:00 NR -25.9045 63.8922 main 874 874 _____P________ -1 -25.9045 63.8922 99 3 138
1894011S13057 1894 2 SI MM NOT_NAMED 1894-01-18 15:00:00 NR -26.0043 63.9902 main 889 889 _____P________ -1 -26.0043 63.9902 99 2 138
1894011S13057 1894 2 SI MM NOT_NAMED 1894-01-18 18:00:00 NR -26.0764 64.0628 main 904 904 _____P________ -1 -26.0764 64.0628 99 2 137
1894011S13057 1894 2 SI MM NOT_NAMED 1894-01-18 21:00:00 NR -26.1266 64.1150 main 904 904 _____P________ -1 -26.1266 64.1150 99 1 138
1894011S13057 1894 2 SI MM NOT_NAMED 1894-01-19 00:00:00 NR -26.1602 64.1519 main 919 919 _____P________ -1 -26.1602 64.1519 99 1 135
1894011S13057 1894 2 SI MM NOT_NAMED 1894-01-19 03:00:00 NR -26.1829 64.1785 main 919 919 _____P________ -1 -26.1829 64.1785 99 1 135
1894011S13057 1894 2 SI MM NOT_NAMED 1894-01-19 06:00:00 NR -26.2000 64.2000 reunion main 919 _____O________ -1 -26.2000 64.2000 99 9.90000 1 0

IBTrACS Databaseについて

本データベースは、米国NOAAが公開する1842年以降の世界の熱帯低気圧のベストトラックデータアーカイブInternational Best Track Archive for Climate Stewardship (IBTrACS)を、ウェブで閲覧しやすい形式に変換したものです。

最終更新日:2021-10-08